Aeroporto :
LOGIN :

Iscrizione | Disclaimer

   EN    FR    IT 

 










Sommario :    VFR   VFR Marginale   IFR   IFR Intensivo   IFR Molto Intensivo
Visibilità : 
Base nubi : 
>= 8 km
>= 3000ft
5 / 8 km
1000 / 3000 ft
1500m / 5 km
500 / 1000 ft
800 / 1500m
200 / 500 ft
< 800m
< 200 ft
Simboli :   Temporali  Nebbia  Neve Forte  Precipitazioni Forti  Vento > 20 kt
SIGMETs :   Varie  Temporali  Ghiacco  Turbolenza  Onda orograficha  Ceneri Vulcaniche






- Altitudine del aeroporto : 31 ft
- Codice IATA : INV


EGPE - Inverness

ULTIMO METAR :
  • 182050Z 22018KT 7000 SHRA SCT007 BKN013 02/01 Q0999

METARs OBSOLETI :
  • 182020Z 21019KT 9999 -SHRA FEW011 SCT027 03/01 Q0999
  • 181950Z 22017KT 9999 -SHRA FEW011 SCT027 03/01 Q0999
  • 181920Z 23014KT 9999 -SHRA FEW010 SCT024 02/01 Q0999
  • 181850Z 22014KT 9999 VCSH FEW020CB FEW032 02/00 Q0999
  • 181820Z 21012KT 9999 -SHRA FEW020CB FEW030 02/00 Q0998 RESHRA RESN

TAF TAF EGPE
Valido dal 18 a 21 ore il 19 a 06 ore UTC


181957Z 1821/1906 23012KT 9999 SCT025
TEMPO 1821/1906 24018G28KT 6000 SHRA BKN014
PROB30
TEMPO 1821/1905 3000 +SHRA SHRASN
ATIS : +44 1667 464 255



MetMap, La meteo Aeronautica in un colpo d'occhio ! - Copyright ORBIFLY Dicembre 2007 - Disclaimer

ORBIFLY MET'MAP TEAM :

Programmazione e sviluppo : Alexandra Zaïnal
Concezione : Baudouin d'Aumeries
Aiuto per la programmazione : Marc-Olivier Méhu
Supporto tecnico e logistico : Manuel Goepfert
Aiuto per la traduzione : Arnaldo La Scala

Contatto : metmap@orbifly.com




FONTI E CREDITI :

   NOAA